Time;durP1;ratioP1;P1;durP2;ratioP2;P2;SDS_P1;SDS_P2;PMS_P1;PMS_P2;Temp;Humidity;BMP_temperature;BMP_pressure;BME280_temperature;BME280_humidity;BME280_pressure;Samples;Min_cycle;Max_cycle;Signal;HPM_P1;HPM_P2
2023/05/02 00:01:33;;;;;;;10.32;5.22;;;15.00;78.10;;;;;;5055310;28;20039;-78
2023/05/02 00:03:59;;;;;;;11.23;5.63;;;15.00;78.20;;;;;;5027752;28;20123;-80
2023/05/02 00:06:25;;;;;;;11.65;5.43;;;15.00;78.30;;;;;;5051416;28;20046;-79
2023/05/02 00:08:51;;;;;;;10.20;5.13;;;15.00;78.50;;;;;;5043477;28;20096;-79
2023/05/02 00:11:16;;;;;;;12.82;5.90;;;14.90;78.50;;;;;;5055554;28;20176;-79
2023/05/02 00:13:42;;;;;;;10.63;5.53;;;14.90;78.60;;;;;;5059389;28;20059;-80
2023/05/02 00:16:10;;;;;;;11.85;5.45;;;14.90;78.80;;;;;;5058681;28;20502;-79
2023/05/02 00:18:35;;;;;;;12.30;5.75;;;14.90;79.00;;;;;;5053950;28;20039;-80
2023/05/02 00:21:01;;;;;;;11.77;6.03;;;14.90;79.10;;;;;;5035145;28;20038;-79
2023/05/02 00:23:27;;;;;;;10.88;5.53;;;14.90;79.20;;;;;;5060414;28;20115;-79
2023/05/02 00:25:52;;;;;;;11.13;5.70;;;14.80;79.30;;;;;;5043768;28;20036;-78
2023/05/02 00:28:18;;;;;;;12.15;5.82;;;14.80;79.30;;;;;;5039798;28;20020;-77
2023/05/02 00:30:45;;;;;;;11.93;5.20;;;14.90;79.50;;;;;;5055336;28;20055;-79
2023/05/02 00:33:12;;;;;;;11.25;5.97;;;14.80;79.60;;;;;;5058701;28;20020;-78
2023/05/02 00:35:38;;;;;;;11.02;5.85;;;14.80;79.70;;;;;;5035558;28;20060;-80
2023/05/02 00:38:04;;;;;;;10.70;5.67;;;14.80;79.70;;;;;;5048959;28;20423;-78
2023/05/02 00:40:30;;;;;;;13.18;5.75;;;14.80;79.80;;;;;;5049287;28;20039;-79
2023/05/02 00:42:56;;;;;;;11.00;5.72;;;14.80;79.80;;;;;;5054584;28;20016;-79
2023/05/02 00:45:22;;;;;;;11.47;5.90;;;14.80;79.90;;;;;;5057491;28;20120;-80
2023/05/02 00:47:49;;;;;;;11.93;6.15;;;14.80;80.00;;;;;;5052773;28;20435;-78
2023/05/02 00:50:16;;;;;;;13.32;6.35;;;14.80;80.10;;;;;;5035923;28;20037;-80
2023/05/02 00:52:42;;;;;;;11.80;5.80;;;14.80;80.20;;;;;;5055075;28;20085;-79
2023/05/02 00:55:08;;;;;;;13.07;5.60;;;14.80;80.10;;;;;;5042839;28;20037;-79
2023/05/02 00:57:34;;;;;;;11.75;5.47;;;14.80;80.10;;;;;;5062454;28;20076;-81
2023/05/02 00:59:59;;;;;;;11.13;6.03;;;14.80;80.10;;;;;;5059298;28;20511;-78
2023/05/02 01:02:36;;;;;;;12.43;6.00;;;14.80;80.20;;;;;;5063066;28;20017;-78
2023/05/02 01:05:14;;;;;;;11.88;5.78;;;14.80;81.30;;;;;;5056999;28;20046;-79
2023/05/02 01:07:50;;;;;;;11.00;5.45;;;14.80;81.20;;;;;;5038404;28;20025;-79
2023/05/02 01:10:43;;;;;;;12.40;6.15;;;14.80;80.70;;;;;;5051452;28;20033;-78
2023/05/02 01:13:16;;;;;;;10.10;5.17;;;14.70;81.80;;;;;;5060321;28;20692;-78
2023/05/02 01:15:44;;;;;;;11.20;5.57;;;14.80;80.60;;;;;;5059830;28;20035;-79
2023/05/02 01:18:13;;;;;;;12.18;6.30;;;14.70;80.50;;;;;;5060410;28;20081;-78
2023/05/02 01:20:43;;;;;;;10.68;5.57;;;14.70;80.70;;;;;;5059402;28;20051;-78
2023/05/02 01:23:51;;;;;;;12.10;6.05;;;14.70;81.00;;;;;;5036311;28;20337;-78
2023/05/02 01:26:35;;;;;;;11.67;5.00;;;14.70;82.30;;;;;;5052400;28;20032;-78
2023/05/02 01:29:03;;;;;;;11.57;5.60;;;14.70;81.20;;;;;;5055501;28;20250;-78
2023/05/02 01:31:35;;;;;;;12.20;6.25;;;14.60;80.70;;;;;;5060375;28;20453;-77
2023/05/02 01:34:03;;;;;;;11.27;5.38;;;14.60;81.20;;;;;;5058570;28;20329;-77
2023/05/02 01:36:31;;;;;;;12.95;6.65;;;14.60;80.80;;;;;;5058726;28;20343;-77
2023/05/02 01:38:59;;;;;;;13.13;5.90;;;14.60;81.00;;;;;;5028444;28;20028;-77
2023/05/02 01:41:26;;;;;;;12.48;5.85;;;14.50;80.90;;;;;;5050520;28;20027;-77
2023/05/02 01:43:58;;;;;;;13.38;6.53;;;14.50;80.90;;;;;;5054779;28;20028;-77
2023/05/02 01:46:28;;;;;;;11.23;5.50;;;14.50;81.00;;;;;;5059712;28;20236;-78
2023/05/02 01:48:56;;;;;;;10.82;5.32;;;14.50;80.90;;;;;;5056368;28;20173;-77
2023/05/02 01:51:25;;;;;;;12.00;6.20;;;14.40;80.70;;;;;;5060089;28;20028;-78
2023/05/02 01:53:52;;;;;;;12.80;6.25;;;14.30;80.50;;;;;;5016391;28;20418;-78
2023/05/02 01:56:20;;;;;;;12.15;5.97;;;14.30;80.40;;;;;;5052717;28;20031;-77
2023/05/02 01:58:47;;;;;;;12.55;5.88;;;14.20;80.50;;;;;;5048029;28;20036;-78
2023/05/02 02:01:14;;;;;;;10.55;5.70;;;14.10;80.70;;;;;;5060808;28;20020;-78
2023/05/02 02:03:40;;;;;;;10.83;5.30;;;14.00;80.60;;;;;;5056393;28;20086;-78
2023/05/02 02:06:07;;;;;;;9.60;5.00;;;13.90;80.60;;;;;;5058805;28;20032;-77
2023/05/02 02:08:34;;;;;;;10.85;5.40;;;13.90;81.10;;;;;;5058427;28;20048;-79
2023/05/02 02:11:07;;;;;;;10.02;5.35;;;13.80;80.60;;;;;;5034313;28;20056;-77
2023/05/02 02:13:48;;;;;;;9.32;5.00;;;13.70;81.10;;;;;;5051633;28;20115;-80
2023/05/02 02:16:23;;;;;;;8.93;4.37;;;13.70;81.60;;;;;;5049895;28;20024;-79
2023/05/02 02:18:52;;;;;;;9.15;3.97;;;13.60;81.10;;;;;;5039536;28;20021;-79
2023/05/02 02:21:20;;;;;;;9.27;4.43;;;13.60;80.80;;;;;;5059751;28;20025;-78
2023/05/02 02:23:52;;;;;;;8.52;4.18;;;13.50;80.80;;;;;;5040189;28;20032;-79
2023/05/02 02:26:20;;;;;;;7.80;4.03;;;13.40;81.30;;;;;;5052268;28;20024;-78
2023/05/02 02:28:46;;;;;;;7.90;3.93;;;13.40;80.90;;;;;;5048436;28;20032;-78
2023/05/02 02:31:12;;;;;;;6.90;3.67;;;13.30;80.80;;;;;;5058265;28;20044;-77
2023/05/02 02:33:38;;;;;;;7.35;3.88;;;13.30;80.90;;;;;;5059444;28;20539;-78
2023/05/02 02:36:46;;;;;;;7.68;3.97;;;13.20;81.00;;;;;;5063735;28;20353;-77
2023/05/02 02:39:40;;;;;;;7.73;3.80;;;13.20;82.70;;;;;;5059207;28;20039;-78
2023/05/02 02:42:25;;;;;;;6.97;3.58;;;13.20;82.30;;;;;;5043155;28;20167;-77
2023/05/02 02:45:15;;;;;;;7.07;3.40;;;13.10;82.00;;;;;;5027453;28;20413;-78
2023/05/02 02:47:53;;;;;;;7.85;3.58;;;13.10;82.30;;;;;;5057390;28;20059;-78
2023/05/02 02:50:38;;;;;;;7.65;4.05;;;13.10;82.80;;;;;;5057252;28;20094;-77
2023/05/02 02:53:07;;;;;;;8.10;3.87;;;13.10;83.60;;;;;;5056157;28;20501;-77
2023/05/02 02:55:33;;;;;;;8.10;4.10;;;13.10;82.50;;;;;;5037978;28;20689;-78
2023/05/02 02:58:11;;;;;;;7.30;3.87;;;13.10;82.70;;;;;;5044469;28;20037;-77
2023/05/02 03:00:38;;;;;;;7.80;3.93;;;13.20;82.80;;;;;;5057394;28;20294;-78
2023/05/02 03:03:05;;;;;;;7.65;3.63;;;13.20;82.80;;;;;;5057874;28;20791;-77
2023/05/02 03:05:32;;;;;;;7.22;3.95;;;13.20;83.00;;;;;;5068460;28;20029;-77
2023/05/02 03:07:59;;;;;;;7.53;3.72;;;13.20;83.00;;;;;;5043673;28;20044;-77
2023/05/02 03:10:25;;;;;;;7.82;4.13;;;13.30;83.10;;;;;;5051514;28;20024;-77
2023/05/02 03:12:54;;;;;;;7.67;4.23;;;13.30;83.10;;;;;;5029572;28;20582;-79
2023/05/02 03:15:39;;;;;;;8.00;3.85;;;13.30;83.10;;;;;;5032898;28;20387;-79
2023/05/02 03:18:05;;;;;;;7.90;3.50;;;13.30;84.50;;;;;;5040882;28;20665;-77
2023/05/02 03:20:31;;;;;;;7.30;3.97;;;13.40;83.20;;;;;;5060764;28;20029;-79
2023/05/02 03:22:57;;;;;;;7.82;3.95;;;13.30;83.20;;;;;;5057068;28;20009;-78
2023/05/02 03:25:22;;;;;;;7.43;3.73;;;13.40;83.20;;;;;;5057855;28;20115;-77
2023/05/02 03:27:48;;;;;;;7.00;3.60;;;13.40;83.20;;;;;;5031637;28;20089;-78
2023/05/02 03:30:14;;;;;;;7.28;3.50;;;13.40;83.10;;;;;;5045663;28;20115;-77
2023/05/02 03:32:40;;;;;;;6.63;3.67;;;13.40;82.90;;;;;;5057280;28;20033;-78
2023/05/02 03:35:06;;;;;;;6.47;3.57;;;13.30;82.70;;;;;;5055199;28;20257;-77
2023/05/02 03:37:33;;;;;;;7.20;3.57;;;13.30;82.60;;;;;;5058206;28;20255;-77
2023/05/02 03:39:59;;;;;;;7.55;3.90;;;13.30;82.70;;;;;;5053552;28;20028;-77
2023/05/02 03:42:24;;;;;;;6.82;3.03;;;13.20;82.50;;;;;;5035525;28;20032;-77
2023/05/02 03:44:53;;;;;;;6.13;3.30;;;13.20;82.50;;;;;;5039445;28;20036;-78
2023/05/02 03:47:19;;;;;;;6.80;3.47;;;13.20;82.80;;;;;;5059794;28;20063;-76
2023/05/02 03:49:45;;;;;;;7.25;3.58;;;13.00;82.50;;;;;;5055105;28;20024;-78
2023/05/02 03:52:11;;;;;;;6.63;3.10;;;13.00;82.60;;;;;;5055660;28;20077;-77
2023/05/02 03:54:37;;;;;;;7.20;3.78;;;13.00;82.70;;;;;;5056254;28;20024;-78
2023/05/02 03:57:03;;;;;;;7.25;3.58;;;13.00;82.70;;;;;;5032158;28;21746;-76
2023/05/02 03:59:34;;;;;;;7.38;3.63;;;12.90;83.40;;;;;;5052637;28;20024;-77
2023/05/02 04:01:59;;;;;;;7.70;3.73;;;12.90;83.20;;;;;;5046731;28;20109;-77
2023/05/02 04:04:25;;;;;;;6.85;3.63;;;12.90;82.80;;;;;;5056005;28;20628;-77
2023/05/02 04:06:51;;;;;;;7.63;3.88;;;12.90;83.00;;;;;;5053211;28;20026;-78
2023/05/02 04:09:17;;;;;;;6.97;3.30;;;12.90;83.10;;;;;;5055647;28;20055;-77
2023/05/02 04:11:44;;;;;;;6.75;3.47;;;12.80;83.20;;;;;;5040544;28;20382;-78
2023/05/02 04:14:10;;;;;;;6.55;3.15;;;12.80;83.30;;;;;;5051139;28;20347;-77
2023/05/02 04:16:35;;;;;;;6.50;3.43;;;12.80;83.50;;;;;;5048795;28;20036;-78
2023/05/02 04:19:01;;;;;;;6.57;3.23;;;12.80;83.60;;;;;;5055938;28;20233;-77
2023/05/02 04:21:27;;;;;;;6.03;3.10;;;12.80;83.70;;;;;;5054965;28;20590;-77
2023/05/02 04:23:53;;;;;;;6.90;3.53;;;12.90;83.90;;;;;;5053144;28;20331;-77
2023/05/02 04:26:18;;;;;;;6.03;3.20;;;12.90;84.00;;;;;;5039480;28;20056;-77
2023/05/02 04:28:44;;;;;;;7.40;3.67;;;12.90;84.00;;;;;;5037106;28;20056;-79
2023/05/02 04:31:10;;;;;;;7.28;3.58;;;12.90;84.00;;;;;;5051714;28;20119;-77
2023/05/02 04:33:35;;;;;;;7.60;3.67;;;12.90;84.10;;;;;;5061160;28;20113;-78
2023/05/02 04:36:01;;;;;;;8.35;3.95;;;12.90;84.20;;;;;;5059406;28;20588;-77
2023/05/02 04:38:27;;;;;;;7.97;3.80;;;12.90;84.30;;;;;;5057079;28;20027;-77
2023/05/02 04:40:53;;;;;;;7.63;3.63;;;12.90;84.30;;;;;;5055160;28;20017;-77
2023/05/02 04:43:19;;;;;;;7.32;3.95;;;13.00;84.50;;;;;;5040641;28;20146;-77
2023/05/02 04:45:45;;;;;;;8.05;4.10;;;13.00;84.60;;;;;;5057600;28;20138;-79
2023/05/02 04:48:11;;;;;;;8.80;3.80;;;13.10;84.80;;;;;;5048299;28;20067;-78
2023/05/02 04:50:37;;;;;;;7.93;3.95;;;13.10;84.90;;;;;;5058858;28;20032;-78
2023/05/02 04:53:03;;;;;;;8.77;4.30;;;13.10;85.10;;;;;;5060157;28;20332;-77
2023/05/02 04:55:29;;;;;;;8.70;4.32;;;13.10;85.20;;;;;;5064049;28;20032;-77
2023/05/02 04:57:54;;;;;;;7.38;3.90;;;13.20;85.30;;;;;;5036056;28;20226;-77
2023/05/02 05:00:20;;;;;;;9.07;4.40;;;13.20;85.40;;;;;;5059423;28;20048;-79
2023/05/02 05:02:46;;;;;;;8.48;4.50;;;13.30;85.50;;;;;;5034166;28;20335;-78
2023/05/02 05:05:12;;;;;;;7.82;4.43;;;13.30;85.50;;;;;;5058592;28;20037;-79
2023/05/02 05:07:38;;;;;;;11.25;5.07;;;13.30;85.70;;;;;;5041708;28;20286;-79
2023/05/02 05:10:04;;;;;;;9.73;5.27;;;13.40;85.80;;;;;;5042234;28;20044;-79
2023/05/02 05:12:30;;;;;;;11.63;5.68;;;13.40;85.90;;;;;;5060349;28;20035;-79
2023/05/02 05:14:56;;;;;;;8.93;4.97;;;13.40;85.70;;;;;;5034847;28;20541;-79
2023/05/02 05:17:22;;;;;;;7.47;4.38;;;13.50;85.70;;;;;;5059647;28;20498;-78
2023/05/02 05:19:47;;;;;;;7.10;4.40;;;13.50;85.70;;;;;;5053907;28;20469;-80
2023/05/02 05:22:14;;;;;;;7.57;3.90;;;13.50;85.70;;;;;;5058496;28;20437;-78
2023/05/02 05:24:39;;;;;;;8.68;4.18;;;13.50;86.40;;;;;;5045484;28;20398;-78
2023/05/02 05:27:05;;;;;;;7.63;3.97;;;13.60;85.80;;;;;;5056677;28;20032;-78
2023/05/02 05:29:33;;;;;;;7.07;4.18;;;13.60;85.90;;;;;;5036381;28;20020;-78
2023/05/02 05:31:59;;;;;;;7.40;3.92;;;13.60;86.00;;;;;;5056127;28;20746;-79
2023/05/02 05:34:25;;;;;;;6.63;3.53;;;13.60;86.00;;;;;;5051347;28;20131;-79
2023/05/02 05:36:51;;;;;;;7.50;3.88;;;13.70;86.00;;;;;;5042035;28;20246;-79
2023/05/02 05:39:17;;;;;;;5.70;3.40;;;13.70;86.10;;;;;;5041724;28;20574;-80
2023/05/02 05:41:43;;;;;;;6.47;3.63;;;13.70;86.00;;;;;;5057675;28;20021;-79
2023/05/02 05:44:08;;;;;;;6.03;3.10;;;13.70;85.90;;;;;;5056400;28;20115;-79
2023/05/02 05:46:34;;;;;;;7.65;3.72;;;13.70;85.90;;;;;;5040192;28;20225;-78
2023/05/02 05:48:59;;;;;;;5.83;2.90;;;13.80;86.00;;;;;;5051816;28;20744;-79
2023/05/02 05:51:26;;;;;;;6.57;3.22;;;13.80;85.90;;;;;;5054277;28;20081;-79
2023/05/02 05:53:52;;;;;;;5.57;3.07;;;13.80;85.90;;;;;;5039632;28;20066;-80
2023/05/02 05:56:18;;;;;;;4.30;2.50;;;13.80;85.70;;;;;;5037370;28;20059;-78
2023/05/02 05:58:44;;;;;;;4.45;2.38;;;13.90;85.70;;;;;;5059675;28;20405;-80
2023/05/02 06:01:10;;;;;;;4.23;2.13;;;13.90;85.60;;;;;;5035631;28;20762;-78
2023/05/02 06:03:36;;;;;;;4.80;2.30;;;13.80;85.60;;;;;;5061081;28;20096;-78
2023/05/02 06:06:02;;;;;;;4.30;2.30;;;13.80;85.50;;;;;;5046509;28;20027;-80
2023/05/02 06:08:29;;;;;;;3.77;2.20;;;13.90;85.60;;;;;;5055364;28;20426;-81
2023/05/02 06:10:55;;;;;;;5.13;2.67;;;13.90;85.70;;;;;;5049526;28;20029;-83
2023/05/02 06:13:20;;;;;;;3.27;2.20;;;13.90;85.60;;;;;;5045621;28;20717;-80
2023/05/02 06:15:46;;;;;;;4.38;2.08;;;13.90;85.50;;;;;;5058170;28;20086;-80
2023/05/02 06:18:12;;;;;;;3.20;2.00;;;13.90;85.50;;;;;;5034254;28;20202;-79
2023/05/02 06:20:38;;;;;;;3.53;1.97;;;13.90;85.50;;;;;;5050561;28;20037;-79
2023/05/02 06:23:04;;;;;;;3.88;2.25;;;14.00;85.40;;;;;;5049940;28;20095;-81
2023/05/02 06:25:31;;;;;;;4.50;2.23;;;14.00;85.30;;;;;;5059692;28;20025;-79
2023/05/02 06:27:57;;;;;;;5.18;2.53;;;14.00;85.10;;;;;;5042912;28;20538;-79
2023/05/02 06:30:22;;;;;;;5.38;2.63;;;14.00;85.00;;;;;;5052540;28;20052;-80
2023/05/02 06:32:48;;;;;;;7.00;3.10;;;14.00;85.00;;;;;;5034549;28;20045;-79
2023/05/02 06:35:14;;;;;;;7.03;3.60;;;14.00;85.20;;;;;;5047807;28;20117;-80
2023/05/02 06:37:40;;;;;;;6.57;3.70;;;14.00;85.10;;;;;;5057579;28;20071;-79
2023/05/02 06:40:08;;;;;;;6.68;3.95;;;14.00;85.10;;;;;;5055458;28;20024;-78
2023/05/02 06:42:33;;;;;;;6.68;3.65;;;14.10;85.20;;;;;;5041620;28;20107;-78
2023/05/02 06:44:59;;;;;;;6.70;3.30;;;14.10;85.20;;;;;;5054017;28;20082;-80
2023/05/02 06:47:25;;;;;;;6.72;2.95;;;14.20;85.20;;;;;;5028538;28;20039;-79
2023/05/02 06:49:52;;;;;;;5.77;3.03;;;14.20;85.80;;;;;;5058051;28;20024;-79
2023/05/02 06:52:18;;;;;;;5.28;2.70;;;14.20;84.90;;;;;;5046014;28;20028;-79
2023/05/02 06:54:44;;;;;;;5.28;2.78;;;14.30;85.10;;;;;;5055159;28;20031;-78
2023/05/02 06:57:10;;;;;;;4.28;2.20;;;14.30;85.20;;;;;;5051541;28;20032;-79
2023/05/02 06:59:36;;;;;;;3.23;2.10;;;14.40;85.10;;;;;;5055262;28;20069;-79
2023/05/02 07:02:02;;;;;;;3.55;2.20;;;14.40;85.00;;;;;;5037361;28;20068;-81
2023/05/02 07:04:27;;;;;;;3.78;2.00;;;14.50;85.40;;;;;;5033510;28;20202;-81
2023/05/02 07:06:53;;;;;;;3.50;1.60;;;14.60;85.60;;;;;;5045810;28;20434;-80
2023/05/02 07:09:19;;;;;;;4.00;1.52;;;14.70;85.80;;;;;;5055447;28;20485;-79
2023/05/02 07:11:45;;;;;;;3.30;1.33;;;14.90;85.50;;;;;;5070371;28;20505;-79
2023/05/02 07:14:10;;;;;;;3.53;1.27;;;15.00;84.70;;;;;;5042165;28;20585;-79
2023/05/02 07:16:38;;;;;;;2.63;1.40;;;15.00;83.90;;;;;;5056138;28;20039;-79
2023/05/02 07:19:05;;;;;;;3.08;1.20;;;15.00;83.40;;;;;;5035915;28;20383;-80
2023/05/02 07:21:31;;;;;;;2.15;1.30;;;15.00;83.30;;;;;;5048735;28;20509;-78
2023/05/02 07:23:57;;;;;;;2.65;1.40;;;15.00;83.20;;;;;;5053986;28;20469;-81
2023/05/02 07:26:24;;;;;;;2.07;1.20;;;15.00;83.30;;;;;;5055283;28;20089;-79
2023/05/02 07:28:49;;;;;;;2.65;1.30;;;15.10;83.90;;;;;;5053051;28;20081;-81
2023/05/02 07:31:15;;;;;;;2.22;1.40;;;15.20;84.40;;;;;;5039449;28;20663;-80
2023/05/02 07:33:41;;;;;;;2.53;1.60;;;15.30;84.40;;;;;;5059933;28;20056;-77
2023/05/02 07:36:06;;;;;;;4.00;1.40;;;15.50;84.10;;;;;;5032955;28;20422;-78
2023/05/02 07:38:32;;;;;;;2.00;1.20;;;15.60;84.20;;;;;;5045756;28;20048;-80
2023/05/02 07:40:59;;;;;;;3.65;1.40;;;15.70;84.50;;;;;;5038533;28;20052;-79
2023/05/02 07:43:25;;;;;;;4.37;1.60;;;15.90;84.60;;;;;;5034775;28;20024;-78
2023/05/02 07:45:51;;;;;;;2.42;1.58;;;16.10;84.70;;;;;;5032315;28;20020;-80
2023/05/02 07:48:16;;;;;;;3.28;1.90;;;16.30;84.90;;;;;;5049264;28;20260;-79
2023/05/02 07:50:42;;;;;;;3.10;1.80;;;16.40;84.40;;;;;;5052521;28;20066;-79
2023/05/02 07:53:08;;;;;;;2.42;1.50;;;16.60;85.30;;;;;;5029476;28;20151;-78
2023/05/02 07:55:34;;;;;;;2.53;1.70;;;16.90;85.10;;;;;;5053071;28;20028;-78
2023/05/02 07:58:00;;;;;;;6.40;2.20;;;17.10;85.10;;;;;;5050290;28;20368;-80
2023/05/02 08:00:25;;;;;;;4.15;1.92;;;17.30;84.30;;;;;;5054999;28;20400;-79
2023/05/02 08:02:51;;;;;;;2.47;1.80;;;17.50;84.10;;;;;;5036572;28;20533;-80
2023/05/02 08:05:17;;;;;;;3.85;1.95;;;17.70;84.90;;;;;;5054570;28;20637;-77
2023/05/02 08:07:43;;;;;;;2.77;1.93;;;18.00;85.30;;;;;;5036401;28;20583;-80
2023/05/02 08:10:09;;;;;;;3.40;2.00;;;18.30;85.10;;;;;;5025930;28;20126;-79
2023/05/02 08:12:41;;;;;;;3.00;2.00;;;18.50;83.70;;;;;;5052713;28;20074;-80
2023/05/02 08:15:10;;;;;;;3.03;1.70;;;18.70;81.50;;;;;;5052962;28;20803;-79
2023/05/02 08:17:36;;;;;;;3.13;1.55;;;18.80;81.70;;;;;;5040532;28;20009;-79
2023/05/02 08:20:02;;;;;;;2.33;1.48;;;18.90;82.70;;;;;;5054695;28;20244;-80
2023/05/02 08:22:27;;;;;;;3.80;1.60;;;19.20;82.60;;;;;;5038841;28;20017;-79
2023/05/02 08:24:53;;;;;;;1.93;1.20;;;19.30;81.80;;;;;;5047937;28;20116;-81
2023/05/02 08:27:19;;;;;;;2.43;1.20;;;19.30;80.70;;;;;;5058759;28;20075;-79
2023/05/02 08:29:45;;;;;;;2.13;1.20;;;19.40;79.10;;;;;;5056630;28;20020;-80
2023/05/02 08:32:11;;;;;;;2.28;1.52;;;19.30;78.10;;;;;;5036859;28;20308;-78
2023/05/02 08:34:36;;;;;;;2.15;1.38;;;19.20;77.80;;;;;;5057430;28;20090;-78
2023/05/02 08:37:08;;;;;;;2.70;1.30;;;19.30;80.50;;;;;;5049779;28;20301;-80
2023/05/02 08:39:34;;;;;;;2.13;1.20;;;19.60;81.20;;;;;;5006732;28;20072;-79
2023/05/02 08:42:00;;;;;;;2.53;1.40;;;19.90;83.50;;;;;;5051527;28;20282;-78
2023/05/02 08:44:25;;;;;;;2.95;1.20;;;20.30;83.40;;;;;;5055630;28;20027;-78
2023/05/02 08:46:52;;;;;;;2.20;1.13;;;20.70;80.90;;;;;;5044507;28;20062;-80
2023/05/02 08:49:19;;;;;;;3.28;1.20;;;20.90;79.10;;;;;;5053841;28;20190;-77
2023/05/02 08:51:50;;;;;;;2.05;1.10;;;21.00;77.60;;;;;;5055942;28;20033;-80
2023/05/02 08:54:17;;;;;;;2.17;1.20;;;21.10;77.20;;;;;;5028358;28;20025;-78
2023/05/02 08:56:44;;;;;;;2.92;1.00;;;21.30;79.10;;;;;;5046902;28;20074;-79
2023/05/02 08:59:10;;;;;;;1.17;1.00;;;21.50;79.10;;;;;;5054488;28;20200;-78
2023/05/02 09:01:40;;;;;;;5.75;1.33;;;21.80;80.20;;;;;;5055000;28;20457;-79
2023/05/02 09:04:05;;;;;;;2.92;1.20;;;22.20;80.10;;;;;;5031471;28;20020;-79
2023/05/02 09:06:32;;;;;;;2.80;1.30;;;22.60;79.00;;;;;;5054068;28;20041;-78
2023/05/02 09:08:59;;;;;;;1.60;1.48;;;22.80;76.80;;;;;;5033787;28;20085;-81
2023/05/02 09:11:25;;;;;;;1.60;1.10;;;22.90;74.80;;;;;;5049082;28;20460;-79
2023/05/02 09:13:51;;;;;;;2.72;1.58;;;23.10;76.30;;;;;;5037904;28;20108;-82
2023/05/02 09:16:22;;;;;;;2.97;1.27;;;23.40;77.40;;;;;;5055706;28;20732;-78
2023/05/02 09:18:53;;;;;;;2.60;1.27;;;23.80;77.70;;;;;;5039167;28;20509;-80
2023/05/02 09:21:34;;;;;;;4.15;1.48;;;24.20;75.00;;;;;;5032882;28;20055;-79
2023/05/02 09:24:02;;;;;;;3.10;1.45;;;24.40;70.70;;;;;;5045896;28;20103;-78
2023/05/02 09:26:32;;;;;;;2.55;1.27;;;24.50;72.20;;;;;;5027688;28;20271;-78
2023/05/02 09:28:59;;;;;;;2.10;1.50;;;24.70;72.30;;;;;;5053739;28;20037;-78
2023/05/02 09:31:33;;;;;;;2.65;1.67;;;24.90;71.40;;;;;;5056285;28;20867;-78
2023/05/02 09:34:31;;;;;;;2.13;1.30;;;24.90;68.20;;;;;;5047641;28;20029;-80
2023/05/02 09:36:57;;;;;;;1.77;1.50;;;24.70;64.60;;;;;;5046065;28;20112;-80
2023/05/02 09:39:25;;;;;;;2.93;1.50;;;24.50;66.90;;;;;;5053662;28;20700;-80
2023/05/02 09:41:50;;;;;;;4.07;1.60;;;24.40;66.10;;;;;;5030906;28;20043;-79
2023/05/02 09:44:18;;;;;;;2.35;1.60;;;24.30;67.00;;;;;;5049886;28;20036;-80
2023/05/02 09:46:47;;;;;;;2.50;1.88;;;24.30;68.30;;;;;;5055122;28;20462;-79
2023/05/02 09:49:13;;;;;;;2.57;2.00;;;24.50;68.60;;;;;;5045616;28;20561;-79
2023/05/02 09:51:39;;;;;;;3.05;1.70;;;24.70;67.60;;;;;;5057325;28;20501;-78
2023/05/02 09:54:05;;;;;;;2.45;1.95;;;24.70;66.30;;;;;;5056527;28;20583;-80
2023/05/02 09:56:50;;;;;;;2.88;1.90;;;24.70;65.10;;;;;;5016432;28;20126;-79
2023/05/02 09:59:16;;;;;;;5.07;2.00;;;24.60;63.10;;;;;;5046050;28;20028;-79
2023/05/02 10:01:42;;;;;;;3.20;1.90;;;24.40;62.80;;;;;;5054643;28;20387;-78
2023/05/02 10:04:15;;;;;;;3.83;1.70;;;24.30;64.60;;;;;;5050556;28;20625;-80
2023/05/02 10:06:44;;;;;;;3.90;1.50;;;24.40;65.20;;;;;;5056456;28;20650;-79
2023/05/02 10:09:13;;;;;;;2.87;1.67;;;24.60;64.90;;;;;;5053472;28;20037;-80
2023/05/02 10:11:41;;;;;;;2.92;1.52;;;24.80;64.70;;;;;;5053472;28;20025;-80
2023/05/02 10:14:11;;;;;;;2.47;1.55;;;24.80;62.40;;;;;;5039396;28;20032;-80
2023/05/02 10:16:59;;;;;;;2.55;1.30;;;24.80;60.70;;;;;;5051121;28;20753;-79
2023/05/02 10:19:56;;;;;;;3.33;1.50;;;24.70;58.80;;;;;;5043090;28;20372;-77
2023/05/02 10:22:23;;;;;;;2.73;1.30;;;24.60;59.80;;;;;;5055516;28;20016;-79
2023/05/02 10:24:49;;;;;;;2.80;1.40;;;24.60;64.10;;;;;;5059074;28;20657;-79
2023/05/02 10:27:15;;;;;;;2.88;1.58;;;24.70;62.70;;;;;;5054664;28;20056;-80
2023/05/02 10:29:42;;;;;;;2.63;1.30;;;24.90;63.40;;;;;;5019103;28;20237;-78
2023/05/02 10:32:09;;;;;;;3.60;1.50;;;25.00;62.80;;;;;;5054694;28;20422;-79
2023/05/02 10:34:35;;;;;;;4.13;1.67;;;25.20;61.60;;;;;;5044742;28;20533;-78
2023/05/02 10:37:02;;;;;;;4.25;1.30;;;25.20;60.90;;;;;;5041152;28;20017;-79
2023/05/02 10:39:28;;;;;;;4.25;1.40;;;25.30;60.70;;;;;;5054029;28;20567;-78
2023/05/02 10:41:57;;;;;;;2.50;1.30;;;25.40;61.50;;;;;;5057142;28;20027;-77
2023/05/02 10:44:36;;;;;;;2.93;1.33;;;25.70;61.30;;;;;;5036430;28;20075;-79
2023/05/02 10:47:21;;;;;;;3.17;1.42;;;25.80;57.90;;;;;;5054240;28;20521;-78
2023/05/02 10:50:00;;;;;;;1.63;1.10;;;25.80;56.40;;;;;;5058455;28;20025;-78
2023/05/02 10:52:34;;;;;;;2.30;1.30;;;25.80;57.60;;;;;;5043533;28;20224;-79
2023/05/02 10:55:21;;;;;;;3.30;1.30;;;25.80;57.30;;;;;;5060819;28;20378;-78
2023/05/02 10:57:58;;;;;;;3.37;1.40;;;26.00;56.40;;;;;;5064301;28;20026;-79
2023/05/02 11:00:26;;;;;;;1.80;1.20;;;26.20;56.90;;;;;;5031713;28;20902;-79
2023/05/02 11:02:52;;;;;;;2.33;1.40;;;26.40;58.50;;;;;;5052723;28;20110;-79
2023/05/02 11:05:18;;;;;;;3.38;1.50;;;26.40;56.60;;;;;;5056988;28;20487;-80
2023/05/02 11:07:44;;;;;;;2.67;1.40;;;26.30;55.30;;;;;;5057466;28;20512;-79
2023/05/02 11:10:16;;;;;;;1.85;1.20;;;26.00;54.30;;;;;;5058460;28;20505;-79
2023/05/02 11:12:52;;;;;;;3.33;1.50;;;25.60;52.20;;;;;;5056881;28;20131;-78
2023/05/02 11:15:27;;;;;;;2.50;1.30;;;25.30;54.40;;;;;;5046347;28;20106;-79
2023/05/02 11:18:02;;;;;;;2.40;1.27;;;25.20;54.90;;;;;;5036105;28;20224;-77
2023/05/02 11:20:29;;;;;;;2.57;1.30;;;25.30;56.10;;;;;;5053622;28;20549;-77
2023/05/02 11:22:57;;;;;;;3.20;1.35;;;25.60;58.50;;;;;;5047977;28;20410;-80
2023/05/02 11:25:30;;;;;;;2.55;1.55;;;26.00;59.10;;;;;;5054614;28;20115;-79
2023/05/02 11:27:56;;;;;;;2.35;1.50;;;26.60;56.50;;;;;;5054802;28;20021;-78
2023/05/02 11:30:49;;;;;;;3.03;1.67;;;26.80;56.70;;;;;;5055341;28;20506;-78
2023/05/02 11:33:16;;;;;;;1.70;1.30;;;27.00;52.90;;;;;;5033662;28;20060;-79
2023/05/02 11:35:43;;;;;;;2.65;1.48;;;27.00;54.10;;;;;;5054196;28;20317;-78
2023/05/02 11:38:11;;;;;;;2.60;1.30;;;26.90;53.50;;;;;;5050833;28;20074;-80
2023/05/02 11:40:37;;;;;;;2.30;1.40;;;26.80;52.60;;;;;;5040256;28;20249;-80
2023/05/02 11:43:14;;;;;;;2.00;1.43;;;26.60;52.40;;;;;;5063139;28;20027;-79
2023/05/02 11:45:43;;;;;;;3.67;1.30;;;26.50;50.80;;;;;;5053593;28;20085;-79
2023/05/02 11:48:11;;;;;;;2.33;1.33;;;26.50;53.60;;;;;;5032215;28;20446;-82
2023/05/02 11:50:42;;;;;;;3.05;1.30;;;26.60;54.20;;;;;;5037736;28;20032;-78
2023/05/02 11:53:12;;;;;;;2.13;1.20;;;26.70;53.30;;;;;;5038074;28;20129;-80
2023/05/02 11:56:03;;;;;;;3.03;1.40;;;26.80;52.30;;;;;;5055821;28;20229;-79
2023/05/02 11:58:31;;;;;;;2.83;1.27;;;26.80;50.60;;;;;;5054277;28;20020;-81
2023/05/02 12:00:58;;;;;;;2.78;1.40;;;26.80;53.60;;;;;;5056864;28;20028;-78
2023/05/02 12:03:30;;;;;;;1.98;1.30;;;27.00;53.50;;;;;;5029906;28;20169;-78
2023/05/02 12:06:09;;;;;;;2.72;1.50;;;27.10;52.80;;;;;;5053593;28;20020;-80
2023/05/02 12:08:35;;;;;;;1.80;1.30;;;27.00;50.90;;;;;;5042610;28;20032;-78
2023/05/02 12:11:01;;;;;;;2.40;1.30;;;26.80;50.60;;;;;;5039018;28;20043;-80
2023/05/02 12:13:28;;;;;;;2.67;1.52;;;26.80;51.40;;;;;;5057468;28;20473;-79
2023/05/02 12:15:55;;;;;;;2.38;1.50;;;26.80;52.00;;;;;;5039685;28;20094;-79
2023/05/02 12:18:24;;;;;;;3.42;1.52;;;27.00;52.60;;;;;;5038551;28;20079;-79
2023/05/02 12:20:54;;;;;;;3.63;1.67;;;27.20;51.60;;;;;;5056123;28;20511;-79
2023/05/02 12:23:22;;;;;;;3.70;1.60;;;27.20;49.90;;;;;;5041151;28;20493;-78
2023/05/02 12:25:49;;;;;;;2.72;1.60;;;27.20;50.30;;;;;;5059232;28;20516;-79
2023/05/02 12:28:17;;;;;;;2.85;1.50;;;27.10;49.50;;;;;;5049163;28;20025;-79
2023/05/02 12:30:46;;;;;;;3.93;1.70;;;26.80;47.80;;;;;;5057758;28;20680;-79
2023/05/02 12:33:12;;;;;;;3.28;1.50;;;26.40;47.80;;;;;;5053405;28;20689;-79
2023/05/02 12:35:38;;;;;;;2.47;1.50;;;26.00;48.50;;;;;;5019283;28;20028;-78
2023/05/02 12:38:22;;;;;;;2.60;1.50;;;25.80;48.80;;;;;;5056256;28;20036;-79
2023/05/02 12:40:51;;;;;;;1.93;1.33;;;25.70;49.00;;;;;;5043705;28;20517;-80
2023/05/02 12:43:17;;;;;;;3.17;1.30;;;25.70;51.00;;;;;;5056707;28;20231;-79
2023/05/02 12:45:43;;;;;;;2.05;1.30;;;26.00;52.20;;;;;;5058939;28;20055;-79
2023/05/02 12:48:18;;;;;;;2.80;1.40;;;26.40;52.80;;;;;;5051846;28;20052;-81
2023/05/02 12:50:44;;;;;;;2.03;1.30;;;26.80;49.60;;;;;;5038390;28;20539;-78
2023/05/02 12:53:09;;;;;;;3.75;1.40;;;27.00;49.60;;;;;;5040229;28;20118;-79